sensor_id;sensor_type;location;lat;lon;timestamp;pressure;altitude;pressure_sealevel;temperature;humidity
75767;BME280;64378;55.596;13.014;2023-03-01T00:00:11;102977.47;;;20.07;37.67
75767;BME280;64378;55.596;13.014;2023-03-01T00:02:37;102974.75;;;20.07;37.57
75767;BME280;64378;55.596;13.014;2023-03-01T00:05:03;102978.53;;;20.06;37.39
75767;BME280;64378;55.596;13.014;2023-03-01T00:07:28;102984.66;;;20.08;37.50
75767;BME280;64378;55.596;13.014;2023-03-01T00:09:54;102978.34;;;20.08;37.54
75767;BME280;64378;55.596;13.014;2023-03-01T00:12:19;102986.56;;;20.08;37.04
75767;BME280;64378;55.596;13.014;2023-03-01T00:14:45;102992.03;;;20.08;37.35
75767;BME280;64378;55.596;13.014;2023-03-01T00:17:10;102982.13;;;20.07;37.28
75767;BME280;64378;55.596;13.014;2023-03-01T00:19:36;102987.63;;;20.07;37.30
75767;BME280;64378;55.596;13.014;2023-03-01T00:22:01;102985.69;;;20.07;37.54
75767;BME280;64378;55.596;13.014;2023-03-01T00:24:27;102981.28;;;20.06;37.22
75767;BME280;64378;55.596;13.014;2023-03-01T00:26:54;102982.13;;;20.07;37.15
75767;BME280;64378;55.596;13.014;2023-03-01T00:29:22;102982.13;;;20.07;37.03
75767;BME280;64378;55.596;13.014;2023-03-01T00:31:47;102980.44;;;20.06;37.04
75767;BME280;64378;55.596;13.014;2023-03-01T00:34:13;102978.75;;;20.05;37.16
75767;BME280;64378;55.596;13.014;2023-03-01T00:36:38;102976.00;;;20.05;37.04
75767;BME280;64378;55.596;13.014;2023-03-01T00:39:05;102985.06;;;20.05;37.05
75767;BME280;64378;55.596;13.014;2023-03-01T00:41:32;102978.75;;;20.05;37.21
75767;BME280;64378;55.596;13.014;2023-03-01T00:43:59;102976.00;;;20.05;37.05
75767;BME280;64378;55.596;13.014;2023-03-01T00:46:26;102980.44;;;20.06;37.03
75767;BME280;64378;55.596;13.014;2023-03-01T00:48:53;102981.50;;;20.05;37.13
75767;BME280;64378;55.596;13.014;2023-03-01T00:51:24;102976.00;;;20.05;37.11
75767;BME280;64378;55.596;13.014;2023-03-01T00:53:55;102974.97;;;20.06;36.97
75767;BME280;64378;55.596;13.014;2023-03-01T00:56:21;102976.84;;;20.05;36.87
75767;BME280;64378;55.596;13.014;2023-03-01T00:58:47;102972.22;;;20.06;37.01
75767;BME280;64378;55.596;13.014;2023-03-01T01:01:21;102969.47;;;20.06;36.84
75767;BME280;64378;55.596;13.014;2023-03-01T01:06:15;102959.56;;;20.05;36.89
75767;BME280;64378;55.596;13.014;2023-03-01T01:08:40;102959.56;;;20.05;36.84
75767;BME280;64378;55.596;13.014;2023-03-01T01:11:09;102957.03;;;20.03;36.85
75767;BME280;64378;55.596;13.014;2023-03-01T01:13:34;102946.94;;;20.04;36.74
75767;BME280;64378;55.596;13.014;2023-03-01T01:16:03;102943.31;;;20.03;36.99
75767;BME280;64378;55.596;13.014;2023-03-01T01:18:28;102941.44;;;20.04;36.92
75767;BME280;64378;55.596;13.014;2023-03-01T01:20:53;102940.59;;;20.03;36.87
75767;BME280;64378;55.596;13.014;2023-03-01T01:23:19;102925.41;;;20.01;36.80
75767;BME280;64378;55.596;13.014;2023-03-01T01:25:44;102932.34;;;20.03;36.80
75767;BME280;64378;55.596;13.014;2023-03-01T01:28:10;102926.06;;;20.03;36.94
75767;BME280;64378;55.596;13.014;2023-03-01T01:30:35;102924.38;;;20.02;36.90
75767;BME280;64378;55.596;13.014;2023-03-01T01:33:00;102919.72;;;20.02;36.79
75767;BME280;64378;55.596;13.014;2023-03-01T01:35:27;102924.38;;;20.02;36.88
75767;BME280;64378;55.596;13.014;2023-03-01T01:37:52;102919.72;;;20.02;36.83
75767;BME280;64378;55.596;13.014;2023-03-01T01:40:18;102914.69;;;19.99;36.57
75767;BME280;64378;55.596;13.014;2023-03-01T01:42:43;102920.75;;;20.01;36.62
75767;BME280;64378;55.596;13.014;2023-03-01T01:45:28;102922.91;;;19.99;36.88
75767;BME280;64378;55.596;13.014;2023-03-01T01:47:56;102917.19;;;20.01;36.72
75767;BME280;64378;55.596;13.014;2023-03-01T01:50:22;102910.03;;;20.00;36.95
75767;BME280;64378;55.596;13.014;2023-03-01T01:52:50;102907.06;;;20.01;36.79
75767;BME280;64378;55.596;13.014;2023-03-01T01:55:27;102901.59;;;20.01;36.71
75767;BME280;64378;55.596;13.014;2023-03-01T01:58:02;102900.53;;;20.02;36.90
75767;BME280;64378;55.596;13.014;2023-03-01T02:00:30;102901.59;;;20.01;36.85
75767;BME280;64378;55.596;13.014;2023-03-01T02:03:12;102907.50;;;20.05;36.63
75767;BME280;64378;55.596;13.014;2023-03-01T02:05:46;102905.81;;;20.04;36.71
75767;BME280;64378;55.596;13.014;2023-03-01T02:08:13;102906.88;;;20.03;36.75
75767;BME280;64378;55.596;13.014;2023-03-01T02:10:41;102887.06;;;20.01;36.67
75767;BME280;64378;55.596;13.014;2023-03-01T02:13:07;102898.84;;;20.01;36.82
75767;BME280;64378;55.596;13.014;2023-03-01T02:15:34;102896.09;;;20.01;36.80
75767;BME280;64378;55.596;13.014;2023-03-01T02:18:01;102907.06;;;20.01;36.24
75767;BME280;64378;55.596;13.014;2023-03-01T02:23:11;102909.41;;;19.98;37.10
75767;BME280;64378;55.596;13.014;2023-03-01T02:25:47;102905.78;;;19.97;36.89
75767;BME280;64378;55.596;13.014;2023-03-01T02:30:42;102913.00;;;19.98;36.74
75767;BME280;64378;55.596;13.014;2023-03-01T02:33:29;102914.88;;;19.98;36.83
75767;BME280;64378;55.596;13.014;2023-03-01T02:35:59;102910.41;;;19.97;36.63
75767;BME280;64378;55.596;13.014;2023-03-01T02:38:26;102896.94;;;19.95;36.65
75767;BME280;64378;55.596;13.014;2023-03-01T02:40:52;102907.53;;;19.98;36.65
75767;BME280;64378;55.596;13.014;2023-03-01T02:43:21;102903.91;;;19.98;36.71
75767;BME280;64378;55.596;13.014;2023-03-01T02:45:50;102903.06;;;19.97;36.56
75767;BME280;64378;55.596;13.014;2023-03-01T02:48:17;102903.25;;;19.96;36.65
75767;BME280;64378;55.596;13.014;2023-03-01T02:51:02;102905.34;;;19.94;36.75
75767;BME280;64378;55.596;13.014;2023-03-01T02:53:49;102911.47;;;19.96;36.58
75767;BME280;64378;55.596;13.014;2023-03-01T02:56:18;102913.38;;;19.95;36.65
75767;BME280;64378;55.596;13.014;2023-03-01T02:58:44;102905.34;;;19.94;36.52
75767;BME280;64378;55.596;13.014;2023-03-01T03:01:17;102901.78;;;19.93;36.66
75767;BME280;64378;55.596;13.014;2023-03-01T03:03:43;102904.53;;;19.93;36.93
75767;BME280;64378;55.596;13.014;2023-03-01T03:06:09;102906.41;;;19.93;36.92
75767;BME280;64378;55.596;13.014;2023-03-01T03:08:35;102908.31;;;19.92;36.59
75767;BME280;64378;55.596;13.014;2023-03-01T03:11:00;102905.59;;;19.92;36.74
75767;BME280;64378;55.596;13.014;2023-03-01T03:13:26;102914.44;;;19.94;37.04
75767;BME280;64378;55.596;13.014;2023-03-01T03:15:54;102906.63;;;19.91;36.80
75767;BME280;64378;55.596;13.014;2023-03-01T03:18:20;102908.31;;;19.92;36.78
75767;BME280;64378;55.596;13.014;2023-03-01T03:20:46;102906.41;;;19.93;36.85
75767;BME280;64378;55.596;13.014;2023-03-01T03:23:11;102906.41;;;19.93;36.75
75767;BME280;64378;55.596;13.014;2023-03-01T03:25:37;102902.84;;;19.92;36.75
75767;BME280;64378;55.596;13.014;2023-03-01T03:28:04;102903.03;;;19.91;36.74
75767;BME280;64378;55.596;13.014;2023-03-01T03:30:36;102901.97;;;19.92;36.82
75767;BME280;64378;55.596;13.014;2023-03-01T03:33:04;102902.84;;;19.92;36.68
75767;BME280;64378;55.596;13.014;2023-03-01T03:35:48;102910.19;;;19.92;36.85
75767;BME280;64378;55.596;13.014;2023-03-01T03:38:16;102903.03;;;19.91;36.65
75767;BME280;64378;55.596;13.014;2023-03-01T03:40:45;102900.28;;;19.91;36.90
75767;BME280;64378;55.596;13.014;2023-03-01T03:43:19;102904.09;;;19.90;36.83
75767;BME280;64378;55.596;13.014;2023-03-01T03:45:47;102900.28;;;19.91;36.56
75767;BME280;64378;55.596;13.014;2023-03-01T03:48:12;102888.50;;;19.90;36.87
75767;BME280;64378;55.596;13.014;2023-03-01T03:50:39;102880.47;;;19.89;36.61
75767;BME280;64378;55.596;13.014;2023-03-01T03:53:07;102881.13;;;19.91;36.80
75767;BME280;64378;55.596;13.014;2023-03-01T03:55:34;102883.84;;;19.91;36.81
75767;BME280;64378;55.596;13.014;2023-03-01T03:58:01;102880.28;;;19.90;36.79
75767;BME280;64378;55.596;13.014;2023-03-01T04:00:33;102875.00;;;19.89;36.75
75767;BME280;64378;55.596;13.014;2023-03-01T04:02:58;102865.97;;;19.88;36.95
75767;BME280;64378;55.596;13.014;2023-03-01T04:05:24;102877.13;;;19.93;36.84
75767;BME280;64378;55.596;13.014;2023-03-01T04:07:49;102875.84;;;19.96;36.70
75767;BME280;64378;55.596;13.014;2023-03-01T04:10:26;102862.16;;;19.96;36.74
75767;BME280;64378;55.596;13.014;2023-03-01T04:12:51;102858.19;;;19.98;36.91
75767;BME280;64378;55.596;13.014;2023-03-01T04:15:17;102853.53;;;19.99;37.01
75767;BME280;64378;55.596;13.014;2023-03-01T04:17:45;102851.00;;;19.97;36.94
75767;BME280;64378;55.596;13.014;2023-03-01T04:20:17;102856.69;;;20.02;36.86
75767;BME280;64378;55.596;13.014;2023-03-01T04:22:43;102844.91;;;20.02;36.83
75767;BME280;64378;55.596;13.014;2023-03-01T04:25:12;102844.66;;;20.03;36.78
75767;BME280;64378;55.596;13.014;2023-03-01T04:27:39;102840.25;;;20.02;36.70
75767;BME280;64378;55.596;13.014;2023-03-01T04:30:06;102845.28;;;20.05;37.03
75767;BME280;64378;55.596;13.014;2023-03-01T04:32:31;102852.25;;;20.08;36.93
75767;BME280;64378;55.596;13.014;2023-03-01T04:34:57;102842.56;;;20.05;36.98
75767;BME280;64378;55.596;13.014;2023-03-01T04:37:22;102852.25;;;20.08;36.76
75767;BME280;64378;55.596;13.014;2023-03-01T04:39:49;102852.25;;;20.08;36.85
75767;BME280;64378;55.596;13.014;2023-03-01T04:42:15;102859.44;;;20.09;36.84
75767;BME280;64378;55.596;13.014;2023-03-01T04:44:42;102850.97;;;20.10;36.84
75767;BME280;64378;55.596;13.014;2023-03-01T04:47:08;102842.75;;;20.10;36.80
75767;BME280;64378;55.596;13.014;2023-03-01T04:49:33;102830.75;;;20.11;36.74
75767;BME280;64378;55.596;13.014;2023-03-01T04:51:59;102825.25;;;20.11;37.02
75767;BME280;64378;55.596;13.014;2023-03-01T04:54:31;102823.56;;;20.10;36.80
75767;BME280;64378;55.596;13.014;2023-03-01T04:56:57;102830.56;;;20.13;36.57
75767;BME280;64378;55.596;13.014;2023-03-01T04:59:23;102826.94;;;20.12;36.66
75767;BME280;64378;55.596;13.014;2023-03-01T05:01:49;102822.31;;;20.13;36.69
75767;BME280;64378;55.596;13.014;2023-03-01T05:04:15;102821.47;;;20.12;36.79
75767;BME280;64378;55.596;13.014;2023-03-01T05:06:41;102825.06;;;20.13;36.65
75767;BME280;64378;55.596;13.014;2023-03-01T05:09:06;102818.72;;;20.12;37.05
75767;BME280;64378;55.596;13.014;2023-03-01T05:11:32;102810.72;;;20.11;36.48
75767;BME280;64378;55.596;13.014;2023-03-01T05:14:02;102813.00;;;20.14;36.78
75767;BME280;64378;55.596;13.014;2023-03-01T05:16:27;102812.19;;;20.13;36.90
75767;BME280;64378;55.596;13.014;2023-03-01T05:18:53;102809.69;;;20.12;36.90
75767;BME280;64378;55.596;13.014;2023-03-01T05:21:20;102814.09;;;20.13;36.83
75767;BME280;64378;55.596;13.014;2023-03-01T05:23:46;102808.38;;;20.14;36.72
75767;BME280;64378;55.596;13.014;2023-03-01T05:26:13;102806.72;;;20.13;36.84
75767;BME280;64378;55.596;13.014;2023-03-01T05:28:38;102807.53;;;20.14;37.11
75767;BME280;64378;55.596;13.014;2023-03-01T05:31:05;102815.56;;;20.15;36.54
75767;BME280;64378;55.596;13.014;2023-03-01T05:33:36;102811.97;;;20.15;36.56
75767;BME280;64378;55.596;13.014;2023-03-01T05:36:02;102809.22;;;20.15;36.42
75767;BME280;64378;55.596;13.014;2023-03-01T05:38:27;102811.97;;;20.15;36.45
75767;BME280;64378;55.596;13.014;2023-03-01T05:40:53;102817.66;;;20.13;36.60
75767;BME280;64378;55.596;13.014;2023-03-01T05:43:18;102814.69;;;20.15;36.72
75767;BME280;64378;55.596;13.014;2023-03-01T05:45:44;102814.69;;;20.15;36.56
75767;BME280;64378;55.596;13.014;2023-03-01T05:48:11;102818.28;;;20.15;36.61
75767;BME280;64378;55.596;13.014;2023-03-01T05:50:40;102828.22;;;20.16;36.79
75767;BME280;64378;55.596;13.014;2023-03-01T05:53:17;102819.97;;;20.16;36.76
75767;BME280;64378;55.596;13.014;2023-03-01T05:55:43;102830.09;;;20.16;36.64
75767;BME280;64378;55.596;13.014;2023-03-01T05:58:14;102846.09;;;20.19;36.58
75767;BME280;64378;55.596;13.014;2023-03-01T06:00:41;102832.84;;;20.16;36.77
75767;BME280;64378;55.596;13.014;2023-03-01T06:03:06;102834.75;;;20.15;36.79
75767;BME280;64378;55.596;13.014;2023-03-01T06:05:32;102840.84;;;20.17;36.80
75767;BME280;64378;55.596;13.014;2023-03-01T06:08:01;102838.13;;;20.17;36.66
75767;BME280;64378;55.596;13.014;2023-03-01T06:10:26;102836.19;;;20.18;36.78
75767;BME280;64378;55.596;13.014;2023-03-01T06:12:52;102835.56;;;20.16;36.51
75767;BME280;64378;55.596;13.014;2023-03-01T06:15:18;102833.88;;;20.15;36.72
75767;BME280;64378;55.596;13.014;2023-03-01T06:17:45;102832.84;;;20.16;36.84
75767;BME280;64378;55.596;13.014;2023-03-01T06:20:12;102833.88;;;20.15;36.81
75767;BME280;64378;55.596;13.014;2023-03-01T06:22:39;102830.31;;;20.14;36.70
75767;BME280;64378;55.596;13.014;2023-03-01T06:25:05;102834.94;;;20.14;36.70
75767;BME280;64378;55.596;13.014;2023-03-01T06:27:30;102834.34;;;20.12;36.73
75767;BME280;64378;55.596;13.014;2023-03-01T06:29:56;102826.53;;;20.09;36.72
75767;BME280;64378;55.596;13.014;2023-03-01T06:32:21;102826.31;;;20.10;36.61
75767;BME280;64378;55.596;13.014;2023-03-01T06:34:47;102826.53;;;20.09;36.60
75767;BME280;64378;55.596;13.014;2023-03-01T06:37:12;102833.09;;;20.08;36.63
75767;BME280;64378;55.596;13.014;2023-03-01T06:39:38;102824.22;;;20.06;36.65
75767;BME280;64378;55.596;13.014;2023-03-01T06:42:04;102828.03;;;20.05;36.42
75767;BME280;64378;55.596;13.014;2023-03-01T06:44:29;102829.09;;;20.04;36.35
75767;BME280;64378;55.596;13.014;2023-03-01T06:46:55;102837.94;;;20.06;36.52
75767;BME280;64378;55.596;13.014;2023-03-01T06:49:20;102839.19;;;20.03;36.62
75767;BME280;64378;55.596;13.014;2023-03-01T06:51:46;102843.84;;;20.03;36.59
75767;BME280;64378;55.596;13.014;2023-03-01T06:54:12;102844.03;;;20.01;36.69
75767;BME280;64378;55.596;13.014;2023-03-01T06:56:37;102850.16;;;20.03;36.42
75767;BME280;64378;55.596;13.014;2023-03-01T06:59:03;102859.22;;;20.04;36.62
75767;BME280;64378;55.596;13.014;2023-03-01T07:01:29;102863.66;;;20.05;36.39
75767;BME280;64378;55.596;13.014;2023-03-01T07:03:55;102842.16;;;20.02;36.53
75767;BME280;64378;55.596;13.014;2023-03-01T07:06:21;102855.22;;;20.06;36.51
75767;BME280;64378;55.596;13.014;2023-03-01T07:08:46;102859.63;;;20.07;36.70
75767;BME280;64378;55.596;13.014;2023-03-01T07:11:12;102865.53;;;20.11;36.69
75767;BME280;64378;55.596;13.014;2023-03-01T07:13:38;102859.84;;;20.12;36.44
75767;BME280;64378;55.596;13.014;2023-03-01T07:16:03;102856.03;;;20.13;36.54
75767;BME280;64378;55.596;13.014;2023-03-01T07:18:29;102860.25;;;20.16;36.51
75767;BME280;64378;55.596;13.014;2023-03-01T07:20:54;102862.78;;;20.17;36.51
75767;BME280;64378;55.596;13.014;2023-03-01T07:23:20;102854.13;;;20.20;36.67
75767;BME280;64378;55.596;13.014;2023-03-01T07:25:52;102854.13;;;20.20;36.17
75767;BME280;64378;55.596;13.014;2023-03-01T07:28:18;102853.09;;;20.21;36.23
75767;BME280;64378;55.596;13.014;2023-03-01T07:30:43;102857.09;;;20.25;36.44
75767;BME280;64378;55.596;13.014;2023-03-01T07:33:09;102860.41;;;20.27;36.48
75767;BME280;64378;55.596;13.014;2023-03-01T07:35:35;102861.06;;;20.29;36.25
75767;BME280;64378;55.596;13.014;2023-03-01T07:38:00;102860.84;;;20.31;36.25
75767;BME280;64378;55.596;13.014;2023-03-01T07:40:26;102860.63;;;20.32;36.52
75767;BME280;64378;55.596;13.014;2023-03-01T07:42:56;102863.78;;;20.36;36.46
75767;BME280;64378;55.596;13.014;2023-03-01T07:45:21;102868.84;;;20.39;36.40
75767;BME280;64378;55.596;13.014;2023-03-01T07:47:47;102873.06;;;20.41;36.50
75767;BME280;64378;55.596;13.014;2023-03-01T07:50:12;102867.13;;;20.44;36.17
75767;BME280;64378;55.596;13.014;2023-03-01T07:52:38;102862.47;;;20.45;36.35
75767;BME280;64378;55.596;13.014;2023-03-01T07:55:04;102866.47;;;20.49;36.11
75767;BME280;64378;55.596;13.014;2023-03-01T07:57:30;102861.84;;;20.49;36.15
75767;BME280;64378;55.596;13.014;2023-03-01T07:59:55;102866.69;;;20.54;36.03
75767;BME280;64378;55.596;13.014;2023-03-01T08:02:20;102862.03;;;20.54;35.76
75767;BME280;64378;55.596;13.014;2023-03-01T08:04:46;102869.19;;;20.55;36.08
75767;BME280;64378;55.596;13.014;2023-03-01T08:07:11;102864.34;;;20.57;36.13
75767;BME280;64378;55.596;13.014;2023-03-01T08:09:37;102865.19;;;20.58;36.14
75767;BME280;64378;55.596;13.014;2023-03-01T08:12:03;102864.13;;;20.59;36.23
75767;BME280;64378;55.596;13.014;2023-03-01T08:14:30;102857.59;;;20.60;36.02
75767;BME280;64378;55.596;13.014;2023-03-01T08:16:56;102860.34;;;20.60;36.14
75767;BME280;64378;55.596;13.014;2023-03-01T08:19:21;102862.03;;;20.61;36.07
75767;BME280;64378;55.596;13.014;2023-03-01T08:21:47;102859.91;;;20.63;36.20
75767;BME280;64378;55.596;13.014;2023-03-01T08:24:12;102865.97;;;20.65;36.31
75767;BME280;64378;55.596;13.014;2023-03-01T08:26:37;102864.94;;;20.66;36.34
75767;BME280;64378;55.596;13.014;2023-03-01T08:29:03;102865.97;;;20.71;36.54
75767;BME280;64378;55.596;13.014;2023-03-01T08:31:37;102869.97;;;20.75;36.27
75767;BME280;64378;55.596;13.014;2023-03-01T08:34:06;102867.63;;;20.78;36.14
75767;BME280;64378;55.596;13.014;2023-03-01T08:36:35;102868.28;;;20.80;36.06
75767;BME280;64378;55.596;13.014;2023-03-01T08:39:02;102864.06;;;20.84;36.04
75767;BME280;64378;55.596;13.014;2023-03-01T08:41:27;102865.50;;;20.87;36.00
75767;BME280;64378;55.596;13.014;2023-03-01T08:43:53;102866.13;;;20.89;36.19
75767;BME280;64378;55.596;13.014;2023-03-01T08:46:37;102872.63;;;20.94;35.72
75767;BME280;64378;55.596;13.014;2023-03-01T08:49:06;102871.38;;;20.97;36.15
75767;BME280;64378;55.596;13.014;2023-03-01T08:51:32;102859.09;;;20.99;35.73
75767;BME280;64378;55.596;13.014;2023-03-01T08:54:06;102870.47;;;21.03;35.83
75767;BME280;64378;55.596;13.014;2023-03-01T08:56:32;102859.50;;;21.03;35.43
75767;BME280;64378;55.596;13.014;2023-03-01T08:58:58;102867.09;;;21.07;35.64
75767;BME280;64378;55.596;13.014;2023-03-01T09:01:23;102869.41;;;21.10;35.37
75767;BME280;64378;55.596;13.014;2023-03-01T09:03:49;102866.66;;;21.10;35.31
75767;BME280;64378;55.596;13.014;2023-03-01T09:06:15;102871.69;;;21.13;35.42
75767;BME280;64378;55.596;13.014;2023-03-01T09:08:43;102877.78;;;21.15;35.50
75767;BME280;64378;55.596;13.014;2023-03-01T09:11:11;102882.00;;;21.18;35.46
75767;BME280;64378;55.596;13.014;2023-03-01T09:13:37;102872.72;;;21.19;35.57
75767;BME280;64378;55.596;13.014;2023-03-01T09:16:04;102874.16;;;21.21;35.30
75767;BME280;64378;55.596;13.014;2023-03-01T09:18:31;102880.50;;;21.22;35.39
75767;BME280;64378;55.596;13.014;2023-03-01T09:21:11;102873.09;;;21.22;35.14
75767;BME280;64378;55.596;13.014;2023-03-01T09:23:39;102879.22;;;21.24;35.19
75767;BME280;64378;55.596;13.014;2023-03-01T09:26:06;102877.09;;;21.26;35.18
75767;BME280;64378;55.596;13.014;2023-03-01T09:28:33;102884.28;;;21.27;34.96
75767;BME280;64378;55.596;13.014;2023-03-01T09:30:59;102884.03;;;21.29;34.85
75767;BME280;64378;55.596;13.014;2023-03-01T09:33:26;102880.47;;;21.28;35.11
75767;BME280;64378;55.596;13.014;2023-03-01T09:36:03;102880.22;;;21.30;35.23
75767;BME280;64378;55.596;13.014;2023-03-01T09:38:29;102885.50;;;21.31;35.09
75767;BME280;64378;55.596;13.014;2023-03-01T09:40:55;102880.03;;;21.31;34.92
75767;BME280;64378;55.596;13.014;2023-03-01T09:46:13;102878.72;;;21.34;34.90
75767;BME280;64378;55.596;13.014;2023-03-01T09:48:49;102880.84;;;21.32;34.95
75767;BME280;64378;55.596;13.014;2023-03-01T09:51:54;102885.06;;;21.34;35.04
75767;BME280;64378;55.596;13.014;2023-03-01T09:54:20;102883.41;;;21.33;34.87
75767;BME280;64378;55.596;13.014;2023-03-01T10:04:47;102883.56;;;21.38;34.68
75767;BME280;64378;55.596;13.014;2023-03-01T10:10:05;102882.50;;;21.39;34.55
75767;BME280;64378;55.596;13.014;2023-03-01T10:12:37;102880.59;;;21.40;34.60
75767;BME280;64378;55.596;13.014;2023-03-01T10:15:14;102879.53;;;21.41;34.55
75767;BME280;64378;55.596;13.014;2023-03-01T10:17:47;102883.97;;;21.42;34.64
75767;BME280;64378;55.596;13.014;2023-03-01T10:20:18;102885.84;;;21.41;34.60
75767;BME280;64378;55.596;13.014;2023-03-01T10:22:44;102881.22;;;21.42;34.38
75767;BME280;64378;55.596;13.014;2023-03-01T10:25:17;102879.28;;;21.42;34.42
75767;BME280;64378;55.596;13.014;2023-03-01T10:27:53;102873.81;;;21.42;34.49
75767;BME280;64378;55.596;13.014;2023-03-01T10:30:31;102870.84;;;21.44;34.25
75767;BME280;64378;55.596;13.014;2023-03-01T10:32:58;102865.34;;;21.44;34.36
75767;BME280;64378;55.596;13.014;2023-03-01T10:35:26;102860.69;;;21.44;34.38
75767;BME280;64378;55.596;13.014;2023-03-01T10:38:11;102855.44;;;21.43;34.28
75767;BME280;64378;55.596;13.014;2023-03-01T10:40:59;102851.63;;;21.44;34.14
75767;BME280;64378;55.596;13.014;2023-03-01T10:46:24;102846.75;;;21.46;34.54
75767;BME280;64378;55.596;13.014;2023-03-01T10:51:30;102838.94;;;21.43;34.08
75767;BME280;64378;55.596;13.014;2023-03-01T10:53:55;102846.75;;;21.46;34.30
75767;BME280;64378;55.596;13.014;2023-03-01T10:56:21;102839.56;;;21.45;34.51
75767;BME280;64378;55.596;13.014;2023-03-01T10:59:01;102849.50;;;21.46;34.25
75767;BME280;64378;55.596;13.014;2023-03-01T11:01:29;102837.66;;;21.45;34.55
75767;BME280;64378;55.596;13.014;2023-03-01T11:06:33;102839.34;;;21.46;34.21
75767;BME280;64378;55.596;13.014;2023-03-01T11:09:14;102834.91;;;21.45;34.18
75767;BME280;64378;55.596;13.014;2023-03-01T11:11:40;102837.66;;;21.45;34.27
75767;BME280;64378;55.596;13.014;2023-03-01T11:14:14;102845.69;;;21.47;34.04
75767;BME280;64378;55.596;13.014;2023-03-01T11:16:46;102834.91;;;21.45;33.92
75767;BME280;64378;55.596;13.014;2023-03-01T11:24:16;102832.78;;;21.47;34.00
75767;BME280;64378;55.596;13.014;2023-03-01T11:26:47;102835.53;;;21.47;34.08
75767;BME280;64378;55.596;13.014;2023-03-01T11:29:35;102841.88;;;21.48;34.05
75767;BME280;64378;55.596;13.014;2023-03-01T11:32:06;102832.78;;;21.47;33.95
75767;BME280;64378;55.596;13.014;2023-03-01T11:34:39;102839.97;;;21.48;34.04
75767;BME280;64378;55.596;13.014;2023-03-01T11:37:21;102836.38;;;21.48;34.06
75767;BME280;64378;55.596;13.014;2023-03-01T11:39:59;102839.13;;;21.48;34.16
75767;BME280;64378;55.596;13.014;2023-03-01T11:42:43;102839.13;;;21.48;34.02
75767;BME280;64378;55.596;13.014;2023-03-01T11:45:12;102831.72;;;21.48;33.89
75767;BME280;64378;55.596;13.014;2023-03-01T11:55:46;102825.16;;;21.49;34.10
75767;BME280;64378;55.596;13.014;2023-03-01T12:01:02;102817.78;;;21.50;34.10
75767;BME280;64378;55.596;13.014;2023-03-01T12:03:42;102813.09;;;21.50;34.03
75767;BME280;64378;55.596;13.014;2023-03-01T12:21:30;102793.66;;;21.52;33.91
75767;BME280;64378;55.596;13.014;2023-03-01T12:26:30;102798.09;;;21.53;33.73
75767;BME280;64378;55.596;13.014;2023-03-01T12:51:16;102787.69;;;21.55;33.58
75767;BME280;64378;55.596;13.014;2023-03-01T12:53:48;102790.69;;;21.53;33.49
75767;BME280;64378;55.596;13.014;2023-03-01T12:56:23;102795.13;;;21.54;33.44
75767;BME280;64378;55.596;13.014;2023-03-01T12:59:14;102792.38;;;21.54;33.53
75767;BME280;64378;55.596;13.014;2023-03-01T13:04:40;102781.16;;;21.56;33.31
75767;BME280;64378;55.596;13.014;2023-03-01T13:07:37;102779.25;;;21.56;33.35
75767;BME280;64378;55.596;13.014;2023-03-01T13:20:26;102768.25;;;21.56;33.09
75767;BME280;64378;55.596;13.014;2023-03-01T13:30:57;102752.84;;;21.55;33.09
75767;BME280;64378;55.596;13.014;2023-03-01T13:35:48;102739.13;;;21.55;33.05
75767;BME280;64378;55.596;13.014;2023-03-01T13:38:44;102738.88;;;21.57;33.04
75767;BME280;64378;55.596;13.014;2023-03-01T13:41:11;102721.78;;;21.55;33.15
75767;BME280;64378;55.596;13.014;2023-03-01T13:43:40;102712.72;;;21.54;33.34
75767;BME280;64378;55.596;13.014;2023-03-01T13:46:20;102719.66;;;21.57;33.48
75767;BME280;64378;55.596;13.014;2023-03-01T13:48:50;102728.94;;;21.56;33.08
75767;BME280;64378;55.596;13.014;2023-03-01T13:51:21;102737.81;;;21.58;33.00
75767;BME280;64378;55.596;13.014;2023-03-01T13:53:48;102727.06;;;21.56;32.84
75767;BME280;64378;55.596;13.014;2023-03-01T13:56:20;102722.38;;;21.57;33.21
75767;BME280;64378;55.596;13.014;2023-03-01T13:58:57;102717.53;;;21.59;32.97
75767;BME280;64378;55.596;13.014;2023-03-01T14:03:51;102732.13;;;21.59;33.12
75767;BME280;64378;55.596;13.014;2023-03-01T14:06:20;102728.31;;;21.60;33.04
75767;BME280;64378;55.596;13.014;2023-03-01T14:08:48;102720.09;;;21.60;32.97
75767;BME280;64378;55.596;13.014;2023-03-01T14:16:52;102706.34;;;21.60;32.92
75767;BME280;64378;55.596;13.014;2023-03-01T14:19:29;102705.72;;;21.58;32.90
75767;BME280;64378;55.596;13.014;2023-03-01T14:24:48;102707.41;;;21.59;33.18
75767;BME280;64378;55.596;13.014;2023-03-01T14:27:14;102698.31;;;21.59;33.04
75767;BME280;64378;55.596;13.014;2023-03-01T14:29:40;102699.16;;;21.59;33.05
75767;BME280;64378;55.596;13.014;2023-03-01T14:32:27;102695.78;;;21.57;32.86
75767;BME280;64378;55.596;13.014;2023-03-01T14:34:53;102700.25;;;21.58;32.99
75767;BME280;64378;55.596;13.014;2023-03-01T14:37:28;102694.75;;;21.58;32.95
75767;BME280;64378;55.596;13.014;2023-03-01T14:39:55;102695.78;;;21.57;32.74
75767;BME280;64378;55.596;13.014;2023-03-01T14:42:23;102693.03;;;21.57;32.86
75767;BME280;64378;55.596;13.014;2023-03-01T14:44:51;102688.59;;;21.56;32.81
75767;BME280;64378;55.596;13.014;2023-03-01T14:47:30;102680.34;;;21.56;32.74